TAP1483 LPPT-GOBD
Flight info
| Callsign | TAP1483 |
|---|---|
| Flight time | 3h 58m |
| Altitude | 37000 |
| Route | BEVOP DCT TAKAV DCT ESS UR724 ADM UR975 DIDAN/N0450F360 UR975 BIMOG/N0458F380 UR975 ULNOT/N0433F300 UR975 SAKLI |
| Aircraft | A21N/M-SDE3FGHIRWY/LB1 |
Departure
| Time | 2026-05-05 18:51 |
|---|---|
| Airport | Lisbon Humberto Delgado Airport (LPPT) |
Arrival
| Time | 2026-05-05 22:49 |
|---|---|
| Airport | Blaise Diagne International Airport (GOBD) |
| Time | Latitude | Longitude | Altitude | Speed | Heading |
|---|---|---|---|---|---|
| 2026-05-05 18:34 | 38.76528 | -9.13388 | 338 ft | 0 kts | 74° |
| 2026-05-05 18:43 | 38.76526 | -9.13399 | 338 ft | 0 kts | 71° |
| 2026-05-05 18:43 | 38.76522 | -9.13412 | 338 ft | 2 kts | 59° |
| 2026-05-05 18:43 | 38.76511 | -9.13426 | 339 ft | 2 kts | 32° |
| 2026-05-05 18:43 | 38.76497 | -9.13433 | 339 ft | 2 kts | 6° |
| 2026-05-05 18:44 | 38.76485 | -9.13433 | 339 ft | 0 kts | 347° |
| 2026-05-05 18:44 | 38.76479 | -9.13430 | 339 ft | 0 kts | 344° |
| 2026-05-05 18:46 | 38.76483 | -9.13432 | 339 ft | 1 kts | 344° |
| 2026-05-05 18:47 | 38.76519 | -9.13445 | 339 ft | 6 kts | 344° |
| 2026-05-05 18:47 | 38.76579 | -9.13467 | 339 ft | 11 kts | 344° |
| 2026-05-05 18:47 | 38.76630 | -9.13493 | 340 ft | 12 kts | 318° |
| 2026-05-05 18:47 | 38.76629 | -9.13647 | 340 ft | 14 kts | 258° |
| 2026-05-05 18:48 | 38.76615 | -9.13731 | 341 ft | 15 kts | 258° |
| 2026-05-05 18:48 | 38.76584 | -9.13919 | 342 ft | 17 kts | 259° |
| 2026-05-05 18:48 | 38.76553 | -9.14017 | 340 ft | 18 kts | 232° |
| 2026-05-05 18:48 | 38.76503 | -9.14191 | 337 ft | 13 kts | 291° |
| 2026-05-05 18:49 | 38.76526 | -9.14266 | 337 ft | 4 kts | 292° |
| 2026-05-05 18:49 | 38.76535 | -9.14295 | 337 ft | 0 kts | 292° |
| 2026-05-05 18:49 | 38.76536 | -9.14296 | 337 ft | 0 kts | 292° |
| 2026-05-05 18:49 | 38.76537 | -9.14299 | 337 ft | 2 kts | 292° |
| 2026-05-05 18:50 | 38.76545 | -9.14325 | 337 ft | 7 kts | 292° |
| 2026-05-05 18:50 | 38.76634 | -9.14392 | 337 ft | 17 kts | 15° |
| 2026-05-05 18:50 | 38.76751 | -9.14334 | 338 ft | 47 kts | 23° |
| 2026-05-05 18:50 | 38.77587 | -9.13880 | 356 ft | 144 kts | 20° |
| 2026-05-05 18:51 | 38.78291 | -9.13511 | 402 ft | 179 kts | 20° |
| 2026-05-05 18:51 | 38.79430 | -9.12853 | 1130 ft | 181 kts | 25° |
| 2026-05-05 18:51 | 38.80471 | -9.12075 | 2071 ft | 176 kts | 30° |
| 2026-05-05 18:51 | 38.81878 | -9.10986 | 3092 ft | 184 kts | 26° |
| 2026-05-05 18:52 | 38.83017 | -9.10226 | 3747 ft | 195 kts | 25° |
| 2026-05-05 18:52 | 38.83847 | -9.09709 | 4199 ft | 202 kts | 25° |
| 2026-05-05 18:52 | 38.85124 | -9.08924 | 4930 ft | 210 kts | 25° |
| 2026-05-05 18:52 | 38.86461 | -9.08094 | 5659 ft | 221 kts | 26° |
| 2026-05-05 18:53 | 38.87736 | -9.06940 | 6307 ft | 236 kts | 51° |
| 2026-05-05 18:53 | 38.88459 | -9.04227 | 7128 ft | 259 kts | 88° |
| 2026-05-05 18:53 | 38.88327 | -9.02681 | 7580 ft | 269 kts | 103° |
| 2026-05-05 18:53 | 38.87503 | -9.00470 | 8353 ft | 280 kts | 122° |
| 2026-05-05 18:54 | 38.86380 | -8.98456 | 9274 ft | 283 kts | 130° |
| 2026-05-05 18:54 | 38.84841 | -8.96943 | 10145 ft | 288 kts | 155° |
| 2026-05-05 18:54 | 38.82869 | -8.96479 | 10806 ft | 300 kts | 184° |
| 2026-05-05 18:54 | 38.80805 | -8.97252 | 11249 ft | 320 kts | 203° |
| 2026-05-05 18:55 | 38.78035 | -8.98896 | 11976 ft | 337 kts | 204° |
| 2026-05-05 18:55 | 38.75878 | -9.00151 | 12782 ft | 341 kts | 203° |
| 2026-05-05 18:55 | 38.73732 | -9.01361 | 13576 ft | 344 kts | 202° |
| 2026-05-05 18:55 | 38.71519 | -9.02581 | 14339 ft | 349 kts | 202° |
| 2026-05-05 18:56 | 38.69281 | -9.03797 | 15081 ft | 353 kts | 202° |
| 2026-05-05 18:56 | 38.67771 | -9.04611 | 15567 ft | 355 kts | 201° |
| 2026-05-05 18:56 | 38.65499 | -9.05831 | 16279 ft | 359 kts | 201° |
| 2026-05-05 18:56 | 38.62415 | -9.07480 | 17209 ft | 364 kts | 201° |
| 2026-05-05 18:57 | 38.60880 | -9.08300 | 17656 ft | 367 kts | 201° |
| 2026-05-05 18:57 | 38.57707 | -9.09992 | 18549 ft | 372 kts | 201° |
| 2026-05-05 18:57 | 38.55287 | -9.11084 | 19168 ft | 374 kts | 191° |
| 2026-05-05 18:57 | 38.53557 | -9.11404 | 19601 ft | 375 kts | 184° |
| 2026-05-05 18:58 | 38.50972 | -9.11612 | 20238 ft | 378 kts | 181° |
| 2026-05-05 18:58 | 38.48331 | -9.11776 | 20841 ft | 382 kts | 181° |
| 2026-05-05 18:58 | 38.45707 | -9.11963 | 21425 ft | 385 kts | 182° |
| 2026-05-05 18:58 | 38.43041 | -9.12184 | 22004 ft | 389 kts | 182° |
| 2026-05-05 18:59 | 38.39418 | -9.12520 | 22761 ft | 393 kts | 183° |
| 2026-05-05 18:59 | 38.37604 | -9.12697 | 23127 ft | 395 kts | 183° |
| 2026-05-05 18:59 | 38.34882 | -9.12970 | 23662 ft | 398 kts | 183° |
| 2026-05-05 18:59 | 38.31163 | -9.13351 | 24073 ft | 401 kts | 183° |
| 2026-05-05 19:00 | 38.28392 | -9.13638 | 24234 ft | 403 kts | 183° |
| 2026-05-05 19:00 | 38.26555 | -9.13829 | 24455 ft | 407 kts | 183° |
| 2026-05-05 19:00 | 38.22785 | -9.14222 | 25201 ft | 408 kts | 183° |
| 2026-05-05 19:00 | 38.20902 | -9.14419 | 25543 ft | 409 kts | 183° |
| 2026-05-05 19:01 | 38.18070 | -9.14714 | 26004 ft | 412 kts | 183° |
| 2026-05-05 19:01 | 38.15204 | -9.15013 | 26444 ft | 415 kts | 183° |
| 2026-05-05 19:01 | 38.12360 | -9.15310 | 26869 ft | 417 kts | 183° |
| 2026-05-05 19:01 | 38.09472 | -9.15611 | 27284 ft | 420 kts | 183° |
| 2026-05-05 19:02 | 38.06535 | -9.15917 | 27691 ft | 423 kts | 183° |
| 2026-05-05 19:02 | 38.03611 | -9.16221 | 28083 ft | 425 kts | 183° |
| 2026-05-05 19:02 | 38.00700 | -9.16524 | 28462 ft | 427 kts | 183° |
| 2026-05-05 19:02 | 37.97698 | -9.16836 | 28838 ft | 430 kts | 183° |
| 2026-05-05 19:03 | 37.94727 | -9.17145 | 29196 ft | 432 kts | 183° |
| 2026-05-05 19:03 | 37.91743 | -9.17455 | 29544 ft | 434 kts | 183° |
| 2026-05-05 19:03 | 37.88749 | -9.17765 | 29882 ft | 437 kts | 183° |
| 2026-05-05 19:03 | 37.85723 | -9.18079 | 30212 ft | 439 kts | 183° |
| 2026-05-05 19:04 | 37.82677 | -9.18394 | 30533 ft | 441 kts | 183° |
| 2026-05-05 19:04 | 37.79612 | -9.18711 | 30844 ft | 443 kts | 183° |
| 2026-05-05 19:04 | 37.76574 | -9.19025 | 31156 ft | 444 kts | 183° |
| 2026-05-05 19:04 | 37.73521 | -9.19341 | 31561 ft | 443 kts | 183° |
| 2026-05-05 19:05 | 37.70444 | -9.19659 | 32012 ft | 441 kts | 183° |
| 2026-05-05 19:05 | 37.67427 | -9.19971 | 32406 ft | 440 kts | 183° |
| 2026-05-05 19:05 | 37.64366 | -9.20287 | 32763 ft | 439 kts | 183° |
| 2026-05-05 19:05 | 37.61343 | -9.20599 | 33100 ft | 439 kts | 183° |
| 2026-05-05 19:06 | 37.58313 | -9.20911 | 33432 ft | 438 kts | 183° |
| 2026-05-05 19:06 | 37.55302 | -9.21221 | 33754 ft | 438 kts | 183° |
| 2026-05-05 19:06 | 37.52254 | -9.21535 | 34071 ft | 437 kts | 183° |
| 2026-05-05 19:06 | 37.49255 | -9.21843 | 34371 ft | 436 kts | 183° |
| 2026-05-05 19:07 | 37.46233 | -9.22153 | 34663 ft | 436 kts | 183° |
| 2026-05-05 19:07 | 37.43224 | -9.22462 | 34943 ft | 436 kts | 183° |
| 2026-05-05 19:07 | 37.40211 | -9.22771 | 35212 ft | 435 kts | 183° |
| 2026-05-05 19:07 | 37.37197 | -9.23079 | 35446 ft | 436 kts | 183° |
| 2026-05-05 19:08 | 37.34197 | -9.23386 | 35644 ft | 437 kts | 183° |
| 2026-05-05 19:08 | 37.31203 | -9.23692 | 35832 ft | 438 kts | 183° |
| 2026-05-05 19:08 | 37.28162 | -9.24002 | 36020 ft | 438 kts | 183° |
| 2026-05-05 19:08 | 37.25131 | -9.24311 | 36203 ft | 439 kts | 183° |
| 2026-05-05 19:09 | 37.22080 | -9.24622 | 36373 ft | 440 kts | 183° |
| 2026-05-05 19:09 | 37.19047 | -9.24931 | 36533 ft | 441 kts | 183° |
| 2026-05-05 19:09 | 37.16011 | -9.25240 | 36687 ft | 442 kts | 183° |
| 2026-05-05 19:09 | 37.11935 | -9.25655 | 36886 ft | 443 kts | 183° |
| 2026-05-05 19:10 | 37.06796 | -9.26184 | 37026 ft | 447 kts | 182° |
| 2026-05-05 19:10 | 37.00585 | -9.26821 | 37030 ft | 454 kts | 181° |
| 2026-05-05 19:11 | 36.94270 | -9.27456 | 37031 ft | 463 kts | 181° |
| 2026-05-05 19:11 | 36.86713 | -9.28210 | 37034 ft | 468 kts | 181° |
| 2026-05-05 19:12 | 36.81353 | -9.28749 | 37034 ft | 468 kts | 181° |
| 2026-05-05 19:12 | 36.74878 | -9.29401 | 37035 ft | 468 kts | 181° |
| 2026-05-05 19:13 | 36.68386 | -9.30054 | 37035 ft | 468 kts | 181° |
| 2026-05-05 19:13 | 36.61946 | -9.30700 | 37034 ft | 469 kts | 181° |
| 2026-05-05 19:14 | 36.55461 | -9.31350 | 37035 ft | 469 kts | 181° |
| 2026-05-05 19:14 | 36.48957 | -9.32001 | 37035 ft | 469 kts | 181° |
| 2026-05-05 19:15 | 36.42468 | -9.32649 | 37035 ft | 469 kts | 181° |
| 2026-05-05 19:15 | 36.34929 | -9.33401 | 37035 ft | 469 kts | 181° |
| 2026-05-05 19:16 | 36.29551 | -9.33937 | 37034 ft | 469 kts | 181° |
| 2026-05-05 19:16 | 36.23069 | -9.34581 | 37034 ft | 469 kts | 181° |
| 2026-05-05 19:17 | 36.16550 | -9.35228 | 37035 ft | 469 kts | 181° |
| 2026-05-05 19:17 | 36.10109 | -9.35868 | 37035 ft | 470 kts | 181° |
| 2026-05-05 19:18 | 36.03611 | -9.36512 | 37035 ft | 469 kts | 181° |
| 2026-05-05 19:18 | 35.97111 | -9.37155 | 37035 ft | 469 kts | 181° |
| 2026-05-05 19:19 | 35.90600 | -9.37677 | 37035 ft | 469 kts | 180° |
| 2026-05-05 19:19 | 35.84133 | -9.38130 | 37035 ft | 469 kts | 179° |
| 2026-05-05 19:20 | 35.77641 | -9.38591 | 37035 ft | 469 kts | 180° |
| 2026-05-05 19:20 | 35.71110 | -9.39060 | 37035 ft | 469 kts | 180° |
| 2026-05-05 19:21 | 35.64647 | -9.39527 | 37035 ft | 469 kts | 180° |
| 2026-05-05 19:21 | 35.58178 | -9.39993 | 37035 ft | 469 kts | 180° |
| 2026-05-05 19:22 | 35.51668 | -9.40462 | 37034 ft | 469 kts | 180° |
| 2026-05-05 19:22 | 35.45203 | -9.40927 | 37035 ft | 469 kts | 180° |
| 2026-05-05 19:23 | 35.38710 | -9.41394 | 37035 ft | 469 kts | 180° |
| 2026-05-05 19:23 | 35.32215 | -9.41859 | 37035 ft | 469 kts | 180° |
| 2026-05-05 19:24 | 35.25748 | -9.42323 | 37035 ft | 469 kts | 180° |
| 2026-05-05 19:24 | 35.19232 | -9.42789 | 37035 ft | 469 kts | 180° |
| 2026-05-05 19:25 | 35.12777 | -9.43249 | 37035 ft | 469 kts | 180° |
| 2026-05-05 19:25 | 35.06291 | -9.43712 | 37035 ft | 469 kts | 180° |
| 2026-05-05 19:26 | 34.99831 | -9.44174 | 37045 ft | 460 kts | 180° |
| 2026-05-05 19:26 | 34.96687 | -9.44394 | 37045 ft | 445 kts | 180° |
| 2026-05-05 19:26 | 34.93644 | -9.44598 | 37044 ft | 434 kts | 182° |
| 2026-05-05 19:27 | 34.87687 | -9.44999 | 37043 ft | 432 kts | 184° |
| 2026-05-05 19:27 | 34.80673 | -9.45511 | 37055 ft | 435 kts | 185° |
| 2026-05-05 19:28 | 34.75652 | -9.45876 | 37059 ft | 435 kts | 184° |
| 2026-05-05 19:28 | 34.69633 | -9.46307 | 37060 ft | 435 kts | 184° |
| 2026-05-05 19:29 | 34.63603 | -9.46735 | 37061 ft | 435 kts | 184° |
| 2026-05-05 19:29 | 34.57590 | -9.47159 | 37060 ft | 435 kts | 184° |
| 2026-05-05 19:30 | 34.51579 | -9.47582 | 37061 ft | 435 kts | 184° |
| 2026-05-05 19:30 | 34.45524 | -9.48007 | 37060 ft | 435 kts | 184° |
| 2026-05-05 19:31 | 34.39510 | -9.48428 | 37061 ft | 435 kts | 184° |
| 2026-05-05 19:31 | 34.33516 | -9.48849 | 37062 ft | 435 kts | 184° |
| 2026-05-05 19:32 | 34.27480 | -9.49271 | 37061 ft | 435 kts | 184° |
| 2026-05-05 19:32 | 34.21467 | -9.49690 | 37060 ft | 435 kts | 184° |
| 2026-05-05 19:33 | 34.15445 | -9.50110 | 37060 ft | 435 kts | 184° |
| 2026-05-05 19:33 | 34.09401 | -9.50531 | 37061 ft | 435 kts | 184° |
| 2026-05-05 19:34 | 34.03381 | -9.50948 | 37061 ft | 435 kts | 184° |
| 2026-05-05 19:35 | 33.94342 | -9.51575 | 37061 ft | 435 kts | 184° |
| 2026-05-05 19:35 | 33.88324 | -9.51993 | 37062 ft | 435 kts | 184° |
| 2026-05-05 19:36 | 33.82304 | -9.52409 | 37061 ft | 436 kts | 184° |
| 2026-05-05 19:36 | 33.76279 | -9.52824 | 37061 ft | 435 kts | 184° |
| 2026-05-05 19:37 | 33.70261 | -9.53239 | 37060 ft | 435 kts | 184° |
| 2026-05-05 19:37 | 33.64237 | -9.53656 | 37061 ft | 436 kts | 184° |
| 2026-05-05 19:38 | 33.58235 | -9.54069 | 37061 ft | 435 kts | 184° |
| 2026-05-05 19:38 | 33.52203 | -9.54484 | 37061 ft | 435 kts | 184° |
| 2026-05-05 19:39 | 33.45162 | -9.54966 | 37061 ft | 435 kts | 184° |
| 2026-05-05 19:39 | 33.40138 | -9.55311 | 37061 ft | 435 kts | 184° |
| 2026-05-05 19:40 | 33.34123 | -9.55722 | 37056 ft | 435 kts | 184° |
| 2026-05-05 19:40 | 33.28111 | -9.56132 | 37052 ft | 435 kts | 184° |
| 2026-05-05 19:41 | 33.22081 | -9.56543 | 37044 ft | 435 kts | 184° |
| 2026-05-05 19:41 | 33.16075 | -9.56953 | 37040 ft | 435 kts | 184° |
| 2026-05-05 19:42 | 33.10044 | -9.57363 | 37037 ft | 435 kts | 184° |
| 2026-05-05 19:42 | 33.04035 | -9.57770 | 37037 ft | 432 kts | 184° |
| 2026-05-05 19:43 | 32.98106 | -9.58172 | 37036 ft | 428 kts | 185° |
| 2026-05-05 19:43 | 32.92168 | -9.58575 | 37035 ft | 425 kts | 185° |
| 2026-05-05 19:44 | 32.86305 | -9.58972 | 37035 ft | 425 kts | 185° |
| 2026-05-05 19:44 | 32.80440 | -9.59368 | 37035 ft | 425 kts | 185° |
| 2026-05-05 19:45 | 32.74537 | -9.59766 | 37034 ft | 425 kts | 185° |
| 2026-05-05 19:45 | 32.68647 | -9.60163 | 37034 ft | 425 kts | 185° |
| 2026-05-05 19:46 | 32.62783 | -9.60558 | 37035 ft | 425 kts | 185° |
| 2026-05-05 19:46 | 32.56904 | -9.60953 | 37034 ft | 425 kts | 185° |
| 2026-05-05 19:47 | 32.51015 | -9.61348 | 37034 ft | 425 kts | 185° |
| 2026-05-05 19:47 | 32.45145 | -9.61743 | 37035 ft | 425 kts | 185° |
| 2026-05-05 19:48 | 32.39250 | -9.62139 | 37034 ft | 425 kts | 184° |
| 2026-05-05 19:48 | 32.33390 | -9.62531 | 37034 ft | 425 kts | 185° |
| 2026-05-05 19:49 | 32.27472 | -9.62925 | 37035 ft | 425 kts | 185° |
| 2026-05-05 19:49 | 32.21595 | -9.63317 | 37035 ft | 425 kts | 185° |
| 2026-05-05 19:50 | 32.15715 | -9.63709 | 37034 ft | 425 kts | 185° |
| 2026-05-05 19:50 | 32.09860 | -9.64099 | 37034 ft | 425 kts | 185° |
| 2026-05-05 19:51 | 32.03968 | -9.64489 | 37034 ft | 425 kts | 185° |
| 2026-05-05 19:51 | 31.98103 | -9.64878 | 37034 ft | 425 kts | 185° |
| 2026-05-05 19:52 | 31.92215 | -9.65267 | 37034 ft | 425 kts | 184° |
| 2026-05-05 19:52 | 31.86310 | -9.65657 | 37034 ft | 425 kts | 184° |
| 2026-05-05 19:53 | 31.80459 | -9.66044 | 37034 ft | 425 kts | 184° |
| 2026-05-05 19:53 | 31.74589 | -9.66431 | 37034 ft | 425 kts | 184° |
| 2026-05-05 19:54 | 31.68695 | -9.66820 | 37034 ft | 425 kts | 184° |
| 2026-05-05 19:54 | 31.62802 | -9.67208 | 37035 ft | 425 kts | 184° |
| 2026-05-05 19:55 | 31.56935 | -9.67593 | 37035 ft | 425 kts | 184° |
| 2026-05-05 19:55 | 31.51045 | -9.67979 | 37034 ft | 425 kts | 184° |
| 2026-05-05 19:56 | 31.45152 | -9.68266 | 37034 ft | 425 kts | 181° |
| 2026-05-05 19:56 | 31.39255 | -9.67909 | 37034 ft | 427 kts | 175° |
| 2026-05-05 19:57 | 31.33396 | -9.66801 | 37035 ft | 428 kts | 169° |
| 2026-05-05 19:57 | 31.27652 | -9.65209 | 37035 ft | 428 kts | 168° |
| 2026-05-05 19:58 | 31.21850 | -9.63589 | 37034 ft | 428 kts | 168° |
| 2026-05-05 19:58 | 31.16076 | -9.61980 | 37035 ft | 428 kts | 168° |
| 2026-05-05 19:59 | 31.10327 | -9.60381 | 37034 ft | 428 kts | 168° |
| 2026-05-05 19:59 | 31.04535 | -9.58769 | 37034 ft | 429 kts | 168° |
| 2026-05-05 20:00 | 30.98772 | -9.57117 | 37036 ft | 427 kts | 168° |
| 2026-05-05 20:00 | 30.93024 | -9.55460 | 37031 ft | 424 kts | 168° |
| 2026-05-05 20:01 | 30.87360 | -9.53835 | 37024 ft | 421 kts | 168° |
| 2026-05-05 20:01 | 30.81717 | -9.52221 | 37006 ft | 420 kts | 168° |
| 2026-05-05 20:02 | 30.76051 | -9.50604 | 36980 ft | 419 kts | 168° |
| 2026-05-05 20:02 | 30.70398 | -9.48997 | 36953 ft | 419 kts | 168° |
| 2026-05-05 20:03 | 30.64744 | -9.47417 | 36936 ft | 419 kts | 168° |
| 2026-05-05 20:03 | 30.59086 | -9.45838 | 36927 ft | 420 kts | 168° |
| 2026-05-05 20:04 | 30.53449 | -9.44265 | 36925 ft | 420 kts | 168° |
| 2026-05-05 20:04 | 30.47806 | -9.42691 | 36926 ft | 420 kts | 168° |
| 2026-05-05 20:05 | 30.42124 | -9.41110 | 36925 ft | 420 kts | 168° |
| 2026-05-05 20:05 | 30.36393 | -9.40075 | 36931 ft | 417 kts | 178° |
| 2026-05-05 20:06 | 30.30667 | -9.40237 | 36944 ft | 415 kts | 187° |
| 2026-05-05 20:06 | 30.25043 | -9.41583 | 36950 ft | 414 kts | 197° |
| 2026-05-05 20:07 | 30.19614 | -9.43830 | 36952 ft | 414 kts | 200° |
| 2026-05-05 20:07 | 30.14268 | -9.46153 | 36951 ft | 414 kts | 200° |
| 2026-05-05 20:08 | 30.08897 | -9.48487 | 36952 ft | 414 kts | 200° |
| 2026-05-05 20:08 | 30.03511 | -9.50822 | 36951 ft | 415 kts | 200° |
| 2026-05-05 20:09 | 29.98123 | -9.53155 | 36952 ft | 414 kts | 200° |
| 2026-05-05 20:09 | 29.92755 | -9.55477 | 36951 ft | 414 kts | 200° |
| 2026-05-05 20:10 | 29.87382 | -9.57820 | 36953 ft | 415 kts | 200° |
| 2026-05-05 20:10 | 29.82016 | -9.60163 | 36951 ft | 415 kts | 200° |
| 2026-05-05 20:11 | 29.76623 | -9.62511 | 36952 ft | 414 kts | 200° |
| 2026-05-05 20:11 | 29.71244 | -9.64852 | 36951 ft | 415 kts | 200° |
| 2026-05-05 20:12 | 29.65900 | -9.67173 | 36951 ft | 415 kts | 200° |
| 2026-05-05 20:12 | 29.60501 | -9.69516 | 36952 ft | 414 kts | 200° |
| 2026-05-05 20:13 | 29.55122 | -9.71848 | 36951 ft | 414 kts | 200° |
| 2026-05-05 20:13 | 29.49764 | -9.74168 | 36951 ft | 414 kts | 200° |
| 2026-05-05 20:14 | 29.44379 | -9.76497 | 36951 ft | 414 kts | 200° |
| 2026-05-05 20:14 | 29.39023 | -9.78810 | 36951 ft | 414 kts | 200° |
| 2026-05-05 20:15 | 29.33626 | -9.81139 | 36951 ft | 414 kts | 200° |
| 2026-05-05 20:15 | 29.28251 | -9.83454 | 36951 ft | 414 kts | 200° |
| 2026-05-05 20:16 | 29.22897 | -9.85759 | 36951 ft | 414 kts | 200° |
| 2026-05-05 20:16 | 29.17498 | -9.88080 | 36951 ft | 414 kts | 200° |
| 2026-05-05 20:17 | 29.12124 | -9.90387 | 36951 ft | 414 kts | 200° |
| 2026-05-05 20:17 | 29.06782 | -9.92683 | 36954 ft | 410 kts | 200° |
| 2026-05-05 20:18 | 29.01531 | -9.94936 | 36955 ft | 401 kts | 199° |
| 2026-05-05 20:18 | 28.96341 | -9.97158 | 36954 ft | 394 kts | 198° |
| 2026-05-05 20:19 | 28.91285 | -9.99309 | 36952 ft | 390 kts | 198° |
| 2026-05-05 20:19 | 28.86204 | -10.01465 | 36953 ft | 390 kts | 198° |
| 2026-05-05 20:20 | 28.81132 | -10.03617 | 36952 ft | 390 kts | 198° |
| 2026-05-05 20:20 | 28.76079 | -10.05760 | 36952 ft | 390 kts | 198° |
| 2026-05-05 20:21 | 28.71017 | -10.07906 | 36951 ft | 390 kts | 198° |
| 2026-05-05 20:21 | 28.65971 | -10.10044 | 36952 ft | 390 kts | 198° |
| 2026-05-05 20:22 | 28.60906 | -10.12187 | 36951 ft | 390 kts | 198° |
| 2026-05-05 20:22 | 28.55831 | -10.14332 | 36951 ft | 390 kts | 198° |
| 2026-05-05 20:23 | 28.50769 | -10.16470 | 36951 ft | 390 kts | 198° |
| 2026-05-05 20:23 | 28.45716 | -10.18601 | 36951 ft | 390 kts | 198° |
| 2026-05-05 20:24 | 28.40629 | -10.20745 | 36951 ft | 390 kts | 198° |
| 2026-05-05 20:24 | 28.35575 | -10.22873 | 36951 ft | 390 kts | 198° |
| 2026-05-05 20:25 | 28.30516 | -10.25000 | 36951 ft | 390 kts | 198° |
| 2026-05-05 20:25 | 28.24592 | -10.27489 | 36951 ft | 390 kts | 198° |
| 2026-05-05 20:26 | 28.20393 | -10.29251 | 36951 ft | 390 kts | 198° |
| 2026-05-05 20:26 | 28.15302 | -10.31385 | 36952 ft | 390 kts | 198° |
| 2026-05-05 20:27 | 28.10240 | -10.33506 | 36951 ft | 390 kts | 198° |
| 2026-05-05 20:27 | 28.05184 | -10.35621 | 36951 ft | 390 kts | 198° |
| 2026-05-05 20:28 | 28.00139 | -10.37730 | 36951 ft | 390 kts | 198° |
| 2026-05-05 20:28 | 27.95033 | -10.39861 | 36952 ft | 390 kts | 198° |
| 2026-05-05 20:29 | 27.89995 | -10.41963 | 36952 ft | 390 kts | 198° |
| 2026-05-05 20:29 | 27.84911 | -10.44081 | 36952 ft | 390 kts | 198° |
| 2026-05-05 20:30 | 27.79850 | -10.46188 | 36951 ft | 390 kts | 198° |
| 2026-05-05 20:30 | 27.74792 | -10.48291 | 36951 ft | 390 kts | 198° |
| 2026-05-05 20:31 | 27.69709 | -10.50402 | 36951 ft | 390 kts | 198° |
| 2026-05-05 20:31 | 27.64637 | -10.52527 | 36951 ft | 390 kts | 199° |
| 2026-05-05 20:32 | 27.59582 | -10.54713 | 36951 ft | 390 kts | 199° |
| 2026-05-05 20:32 | 27.54559 | -10.56883 | 36951 ft | 390 kts | 199° |
| 2026-05-05 20:33 | 27.49513 | -10.59058 | 36952 ft | 390 kts | 199° |
| 2026-05-05 20:33 | 27.44463 | -10.61230 | 36951 ft | 390 kts | 199° |
| 2026-05-05 20:34 | 27.39402 | -10.63406 | 36951 ft | 390 kts | 198° |
| 2026-05-05 20:34 | 27.34358 | -10.65570 | 36952 ft | 390 kts | 198° |
| 2026-05-05 20:35 | 27.29322 | -10.67730 | 36951 ft | 390 kts | 198° |
| 2026-05-05 20:35 | 27.24249 | -10.69903 | 36952 ft | 390 kts | 198° |
| 2026-05-05 20:36 | 27.19191 | -10.72066 | 36951 ft | 390 kts | 198° |
| 2026-05-05 20:36 | 27.14173 | -10.74211 | 36951 ft | 390 kts | 198° |
| 2026-05-05 20:37 | 27.09099 | -10.76379 | 36951 ft | 390 kts | 198° |
| 2026-05-05 20:37 | 27.04055 | -10.78531 | 36951 ft | 390 kts | 198° |
| 2026-05-05 20:38 | 26.98997 | -10.80684 | 36951 ft | 389 kts | 198° |
| 2026-05-05 20:38 | 26.93968 | -10.82823 | 36951 ft | 389 kts | 199° |
| 2026-05-05 20:39 | 26.88914 | -10.84971 | 36954 ft | 389 kts | 199° |
| 2026-05-05 20:39 | 26.83887 | -10.87109 | 36952 ft | 390 kts | 199° |
| 2026-05-05 20:40 | 26.78799 | -10.89272 | 36951 ft | 390 kts | 199° |
| 2026-05-05 20:40 | 26.73775 | -10.91404 | 36951 ft | 391 kts | 200° |
| 2026-05-05 20:41 | 26.68684 | -10.93562 | 36951 ft | 391 kts | 200° |
| 2026-05-05 20:41 | 26.63613 | -10.95709 | 36951 ft | 392 kts | 200° |
| 2026-05-05 20:42 | 26.58514 | -10.97866 | 36951 ft | 392 kts | 200° |
| 2026-05-05 20:42 | 26.53422 | -11.00018 | 36951 ft | 393 kts | 200° |
| 2026-05-05 20:43 | 26.48352 | -11.02158 | 36951 ft | 394 kts | 200° |
| 2026-05-05 20:43 | 26.43225 | -11.04320 | 36951 ft | 394 kts | 200° |
| 2026-05-05 20:44 | 26.38129 | -11.06468 | 36951 ft | 394 kts | 200° |
| 2026-05-05 20:44 | 26.33020 | -11.08619 | 36951 ft | 394 kts | 200° |
| 2026-05-05 20:45 | 26.25333 | -11.11851 | 36951 ft | 394 kts | 200° |
| 2026-05-05 20:45 | 26.20218 | -11.13999 | 36951 ft | 394 kts | 200° |
| 2026-05-05 20:46 | 26.15109 | -11.16143 | 36952 ft | 394 kts | 200° |
| 2026-05-05 20:46 | 26.09995 | -11.18287 | 36951 ft | 394 kts | 200° |
| 2026-05-05 20:47 | 26.04899 | -11.20421 | 36951 ft | 394 kts | 200° |
| 2026-05-05 20:47 | 25.99775 | -11.22565 | 36951 ft | 394 kts | 200° |
| 2026-05-05 20:48 | 25.94667 | -11.24700 | 36952 ft | 394 kts | 200° |
| 2026-05-05 20:48 | 25.89538 | -11.26842 | 36953 ft | 394 kts | 200° |
| 2026-05-05 20:49 | 25.84409 | -11.28982 | 36952 ft | 394 kts | 200° |
| 2026-05-05 20:49 | 25.79293 | -11.31114 | 36951 ft | 394 kts | 200° |
| 2026-05-05 20:50 | 25.74182 | -11.33242 | 36951 ft | 394 kts | 200° |
| 2026-05-05 20:50 | 25.69064 | -11.35372 | 36951 ft | 394 kts | 200° |
| 2026-05-05 20:51 | 25.63945 | -11.37499 | 36951 ft | 394 kts | 200° |
| 2026-05-05 20:51 | 25.58826 | -11.39625 | 36951 ft | 394 kts | 200° |
| 2026-05-05 20:52 | 25.53724 | -11.41742 | 36951 ft | 394 kts | 200° |
| 2026-05-05 20:52 | 25.48612 | -11.43861 | 36951 ft | 394 kts | 200° |
| 2026-05-05 20:53 | 25.43486 | -11.45984 | 36951 ft | 394 kts | 200° |
| 2026-05-05 20:53 | 25.38364 | -11.48103 | 36951 ft | 394 kts | 200° |
| 2026-05-05 20:54 | 25.33245 | -11.50219 | 36952 ft | 394 kts | 200° |
| 2026-05-05 20:54 | 25.28151 | -11.52322 | 36952 ft | 394 kts | 200° |
| 2026-05-05 20:55 | 25.23015 | -11.54441 | 36952 ft | 394 kts | 200° |
| 2026-05-05 20:55 | 25.17855 | -11.56473 | 36952 ft | 394 kts | 198° |
| 2026-05-05 20:56 | 25.12689 | -11.58413 | 36952 ft | 394 kts | 198° |
| 2026-05-05 20:56 | 25.07536 | -11.60347 | 36951 ft | 395 kts | 199° |
| 2026-05-05 20:57 | 25.02324 | -11.62306 | 36951 ft | 397 kts | 200° |
| 2026-05-05 20:57 | 24.97095 | -11.64276 | 36951 ft | 400 kts | 200° |
| 2026-05-05 20:58 | 24.91832 | -11.66259 | 36952 ft | 402 kts | 200° |
| 2026-05-05 20:58 | 24.86587 | -11.68237 | 36953 ft | 402 kts | 200° |
| 2026-05-05 20:59 | 24.81287 | -11.70232 | 36952 ft | 402 kts | 200° |
| 2026-05-05 20:59 | 24.76022 | -11.72211 | 36952 ft | 402 kts | 200° |
| 2026-05-05 21:00 | 24.70746 | -11.74192 | 36952 ft | 402 kts | 200° |
| 2026-05-05 21:00 | 24.65484 | -11.76165 | 36952 ft | 402 kts | 200° |
| 2026-05-05 21:01 | 24.60216 | -11.78139 | 36952 ft | 402 kts | 200° |
| 2026-05-05 21:01 | 24.54969 | -11.80104 | 36951 ft | 402 kts | 200° |
| 2026-05-05 21:02 | 24.49673 | -11.82085 | 36951 ft | 402 kts | 200° |
| 2026-05-05 21:02 | 24.44399 | -11.84056 | 36951 ft | 402 kts | 200° |
| 2026-05-05 21:03 | 24.39150 | -11.86016 | 36951 ft | 402 kts | 200° |
| 2026-05-05 21:03 | 24.33868 | -11.87986 | 36951 ft | 402 kts | 200° |
| 2026-05-05 21:04 | 24.28610 | -11.89946 | 36951 ft | 402 kts | 200° |
| 2026-05-05 21:04 | 24.23322 | -11.91915 | 36951 ft | 402 kts | 200° |
| 2026-05-05 21:05 | 24.18070 | -11.93869 | 36951 ft | 402 kts | 200° |
| 2026-05-05 21:05 | 24.12796 | -11.95830 | 36951 ft | 402 kts | 200° |
| 2026-05-05 21:06 | 24.07515 | -11.97791 | 36951 ft | 402 kts | 200° |
| 2026-05-05 21:06 | 24.02247 | -11.99746 | 36951 ft | 402 kts | 200° |
| 2026-05-05 21:07 | 23.96929 | -12.01718 | 36951 ft | 402 kts | 200° |
| 2026-05-05 21:07 | 23.91691 | -12.03659 | 36951 ft | 402 kts | 200° |
| 2026-05-05 21:08 | 23.86400 | -12.05617 | 36952 ft | 402 kts | 200° |
| 2026-05-05 21:08 | 23.81129 | -12.07566 | 36952 ft | 402 kts | 200° |
| 2026-05-05 21:09 | 23.75839 | -12.09521 | 36951 ft | 402 kts | 200° |
| 2026-05-05 21:09 | 23.70553 | -12.11472 | 36951 ft | 402 kts | 200° |
| 2026-05-05 21:10 | 23.65309 | -12.13406 | 36951 ft | 402 kts | 200° |
| 2026-05-05 21:10 | 23.60023 | -12.15354 | 36951 ft | 402 kts | 200° |
| 2026-05-05 21:11 | 23.54749 | -12.17295 | 36951 ft | 402 kts | 200° |
| 2026-05-05 21:11 | 23.49454 | -12.19243 | 36951 ft | 402 kts | 200° |
| 2026-05-05 21:12 | 23.44197 | -12.21175 | 36951 ft | 402 kts | 200° |
| 2026-05-05 21:12 | 23.38974 | -12.23095 | 36951 ft | 402 kts | 200° |
| 2026-05-05 21:13 | 23.33723 | -12.25024 | 36951 ft | 402 kts | 200° |
| 2026-05-05 21:13 | 23.28422 | -12.26968 | 36951 ft | 402 kts | 200° |
| 2026-05-05 21:14 | 23.23136 | -12.28905 | 37147 ft | 403 kts | 200° |
| 2026-05-05 21:14 | 23.20490 | -12.29874 | 37395 ft | 402 kts | 200° |
| 2026-05-05 21:14 | 23.17862 | -12.30835 | 37615 ft | 401 kts | 200° |
| 2026-05-05 21:15 | 23.15215 | -12.31804 | 37804 ft | 401 kts | 200° |
| 2026-05-05 21:15 | 23.12568 | -12.32772 | 37977 ft | 401 kts | 200° |
| 2026-05-05 21:15 | 23.09960 | -12.33725 | 38143 ft | 401 kts | 200° |
| 2026-05-05 21:15 | 23.07293 | -12.34699 | 38309 ft | 401 kts | 200° |
| 2026-05-05 21:16 | 23.04676 | -12.35655 | 38466 ft | 401 kts | 200° |
| 2026-05-05 21:16 | 23.02023 | -12.36622 | 38621 ft | 401 kts | 200° |
| 2026-05-05 21:16 | 22.99410 | -12.37571 | 38772 ft | 401 kts | 201° |
| 2026-05-05 21:16 | 22.96740 | -12.38540 | 38916 ft | 401 kts | 201° |
| 2026-05-05 21:17 | 22.91467 | -12.40459 | 38949 ft | 403 kts | 202° |
| 2026-05-05 21:17 | 22.86161 | -12.42393 | 38952 ft | 405 kts | 203° |
| 2026-05-05 21:18 | 22.80838 | -12.44338 | 38953 ft | 406 kts | 203° |
| 2026-05-05 21:18 | 22.75503 | -12.46210 | 38953 ft | 407 kts | 201° |
| 2026-05-05 21:19 | 22.69996 | -12.47744 | 38953 ft | 408 kts | 199° |
| 2026-05-05 21:19 | 22.64512 | -12.49238 | 38953 ft | 408 kts | 199° |
| 2026-05-05 21:20 | 22.59042 | -12.50726 | 38953 ft | 408 kts | 199° |
| 2026-05-05 21:20 | 22.53547 | -12.52218 | 38953 ft | 408 kts | 199° |
| 2026-05-05 21:21 | 22.48052 | -12.53709 | 38953 ft | 408 kts | 199° |
| 2026-05-05 21:21 | 22.42550 | -12.55200 | 38953 ft | 409 kts | 199° |
| 2026-05-05 21:22 | 22.37070 | -12.56685 | 38953 ft | 409 kts | 199° |
| 2026-05-05 21:22 | 22.31590 | -12.58169 | 38953 ft | 409 kts | 199° |
| 2026-05-05 21:23 | 22.26097 | -12.59654 | 38953 ft | 409 kts | 199° |
| 2026-05-05 21:23 | 22.20593 | -12.61142 | 38953 ft | 409 kts | 199° |
| 2026-05-05 21:24 | 22.15091 | -12.62627 | 38953 ft | 409 kts | 199° |
| 2026-05-05 21:24 | 22.09609 | -12.64106 | 38953 ft | 409 kts | 199° |
| 2026-05-05 21:25 | 22.04101 | -12.65591 | 38954 ft | 409 kts | 199° |
| 2026-05-05 21:25 | 21.98633 | -12.67063 | 38953 ft | 409 kts | 199° |
| 2026-05-05 21:26 | 21.93116 | -12.68548 | 38953 ft | 409 kts | 199° |
| 2026-05-05 21:26 | 21.87613 | -12.70027 | 38954 ft | 409 kts | 199° |
| 2026-05-05 21:27 | 21.82112 | -12.71506 | 38953 ft | 409 kts | 199° |
| 2026-05-05 21:27 | 21.76626 | -12.72979 | 38953 ft | 409 kts | 199° |
| 2026-05-05 21:28 | 21.71150 | -12.74448 | 38953 ft | 409 kts | 199° |
| 2026-05-05 21:28 | 21.65651 | -12.75922 | 38953 ft | 409 kts | 199° |
| 2026-05-05 21:29 | 21.60149 | -12.77396 | 38953 ft | 409 kts | 199° |
| 2026-05-05 21:29 | 21.54664 | -12.78864 | 38953 ft | 409 kts | 199° |
| 2026-05-05 21:30 | 21.49135 | -12.80343 | 38953 ft | 409 kts | 199° |
| 2026-05-05 21:30 | 21.43664 | -12.81804 | 38953 ft | 409 kts | 199° |
| 2026-05-05 21:31 | 21.38143 | -12.83278 | 38953 ft | 409 kts | 199° |
| 2026-05-05 21:31 | 21.32655 | -12.84742 | 38953 ft | 409 kts | 199° |
| 2026-05-05 21:32 | 21.27167 | -12.86205 | 38953 ft | 409 kts | 199° |
| 2026-05-05 21:32 | 21.21646 | -12.87677 | 38953 ft | 409 kts | 199° |
| 2026-05-05 21:33 | 21.16154 | -12.89138 | 38953 ft | 409 kts | 199° |
| 2026-05-05 21:33 | 21.10658 | -12.90599 | 38954 ft | 409 kts | 199° |
| 2026-05-05 21:34 | 21.05213 | -12.92038 | 38955 ft | 405 kts | 200° |
| 2026-05-05 21:34 | 20.99762 | -12.93480 | 38954 ft | 400 kts | 201° |
| 2026-05-05 21:35 | 20.94412 | -12.94898 | 38954 ft | 396 kts | 202° |
| 2026-05-05 21:35 | 20.89101 | -12.96315 | 38954 ft | 395 kts | 202° |
| 2026-05-05 21:36 | 20.83782 | -12.97730 | 38953 ft | 395 kts | 202° |
| 2026-05-05 21:36 | 20.78449 | -12.99144 | 38953 ft | 396 kts | 202° |
| 2026-05-05 21:37 | 20.73110 | -13.00557 | 38953 ft | 397 kts | 201° |
| 2026-05-05 21:37 | 20.67771 | -13.01969 | 38953 ft | 397 kts | 201° |
| 2026-05-05 21:38 | 20.62423 | -13.03381 | 38953 ft | 398 kts | 201° |
| 2026-05-05 21:38 | 20.57104 | -13.04869 | 38952 ft | 395 kts | 205° |
| 2026-05-05 21:39 | 20.52023 | -13.06858 | 38952 ft | 390 kts | 210° |
| 2026-05-05 21:39 | 20.47204 | -13.09400 | 38952 ft | 386 kts | 215° |
| 2026-05-05 21:40 | 20.42682 | -13.12468 | 38952 ft | 384 kts | 220° |
| 2026-05-05 21:40 | 20.38389 | -13.15816 | 38953 ft | 384 kts | 221° |
| 2026-05-05 21:41 | 20.34096 | -13.19176 | 38952 ft | 385 kts | 221° |
| 2026-05-05 21:41 | 20.29775 | -13.22561 | 38953 ft | 386 kts | 221° |
| 2026-05-05 21:42 | 20.25462 | -13.25940 | 38953 ft | 386 kts | 221° |
| 2026-05-05 21:42 | 20.21150 | -13.29318 | 38953 ft | 386 kts | 221° |
| 2026-05-05 21:43 | 20.16845 | -13.32689 | 38953 ft | 386 kts | 221° |
| 2026-05-05 21:43 | 20.12545 | -13.36053 | 38953 ft | 386 kts | 221° |
| 2026-05-05 21:44 | 20.08228 | -13.39429 | 38953 ft | 386 kts | 221° |
| 2026-05-05 21:44 | 20.03901 | -13.42810 | 38953 ft | 386 kts | 221° |
| 2026-05-05 21:45 | 19.99590 | -13.46177 | 38953 ft | 386 kts | 221° |
| 2026-05-05 21:45 | 19.95272 | -13.49547 | 38953 ft | 386 kts | 221° |
| 2026-05-05 21:46 | 19.90977 | -13.52896 | 38953 ft | 386 kts | 221° |
| 2026-05-05 21:46 | 19.86638 | -13.56277 | 38953 ft | 386 kts | 221° |
| 2026-05-05 21:47 | 19.82332 | -13.59630 | 38953 ft | 386 kts | 221° |
| 2026-05-05 21:47 | 19.78016 | -13.62989 | 38953 ft | 386 kts | 221° |
| 2026-05-05 21:48 | 19.73704 | -13.66342 | 38955 ft | 386 kts | 221° |
| 2026-05-05 21:48 | 19.69359 | -13.69719 | 38953 ft | 386 kts | 221° |
| 2026-05-05 21:49 | 19.65044 | -13.73070 | 38953 ft | 386 kts | 221° |
| 2026-05-05 21:49 | 19.60735 | -13.76414 | 38953 ft | 386 kts | 221° |
| 2026-05-05 21:50 | 19.56394 | -13.79781 | 38953 ft | 386 kts | 221° |
| 2026-05-05 21:50 | 19.52074 | -13.83130 | 38953 ft | 386 kts | 221° |
| 2026-05-05 21:51 | 19.47762 | -13.86469 | 38953 ft | 386 kts | 221° |
| 2026-05-05 21:51 | 19.43432 | -13.89820 | 38953 ft | 386 kts | 221° |
| 2026-05-05 21:52 | 19.36937 | -13.94843 | 38953 ft | 386 kts | 221° |
| 2026-05-05 21:53 | 19.32621 | -13.98178 | 38953 ft | 386 kts | 221° |
| 2026-05-05 21:53 | 19.28292 | -14.01521 | 38953 ft | 386 kts | 221° |
| 2026-05-05 21:54 | 19.23961 | -14.04863 | 38953 ft | 386 kts | 221° |
| 2026-05-05 21:54 | 19.19650 | -14.08187 | 38953 ft | 386 kts | 221° |
| 2026-05-05 21:55 | 19.15301 | -14.11539 | 38953 ft | 386 kts | 221° |
| 2026-05-05 21:55 | 19.10960 | -14.14882 | 38953 ft | 386 kts | 221° |
| 2026-05-05 21:56 | 19.06645 | -14.18203 | 38953 ft | 386 kts | 221° |
| 2026-05-05 21:56 | 19.02321 | -14.21528 | 38953 ft | 387 kts | 221° |
| 2026-05-05 21:57 | 18.97968 | -14.24872 | 38952 ft | 388 kts | 221° |
| 2026-05-05 21:57 | 18.93625 | -14.28208 | 38952 ft | 389 kts | 221° |
| 2026-05-05 21:58 | 18.89230 | -14.31581 | 38953 ft | 391 kts | 221° |
| 2026-05-05 21:58 | 18.84829 | -14.34957 | 38953 ft | 392 kts | 221° |
| 2026-05-05 21:59 | 18.80443 | -14.38320 | 38953 ft | 392 kts | 221° |
| 2026-05-05 21:59 | 18.76022 | -14.41707 | 38953 ft | 392 kts | 221° |
| 2026-05-05 22:00 | 18.71639 | -14.45063 | 38953 ft | 392 kts | 221° |
| 2026-05-05 22:00 | 18.67224 | -14.48440 | 38953 ft | 392 kts | 221° |
| 2026-05-05 22:01 | 18.62830 | -14.51800 | 38953 ft | 392 kts | 221° |
| 2026-05-05 22:01 | 18.58421 | -14.55169 | 38953 ft | 392 kts | 221° |
| 2026-05-05 22:02 | 18.54031 | -14.58520 | 38953 ft | 392 kts | 221° |
| 2026-05-05 22:02 | 18.49625 | -14.61882 | 38953 ft | 392 kts | 221° |
| 2026-05-05 22:03 | 18.45221 | -14.65240 | 38954 ft | 392 kts | 221° |
| 2026-05-05 22:03 | 18.40813 | -14.68600 | 38953 ft | 392 kts | 221° |
| 2026-05-05 22:04 | 18.36401 | -14.71959 | 38953 ft | 392 kts | 221° |
| 2026-05-05 22:04 | 18.31978 | -14.75326 | 38953 ft | 392 kts | 221° |
| 2026-05-05 22:05 | 18.27583 | -14.78668 | 38953 ft | 392 kts | 221° |
| 2026-05-05 22:05 | 18.23178 | -14.82016 | 38953 ft | 392 kts | 221° |
| 2026-05-05 22:06 | 18.18770 | -14.85364 | 38953 ft | 392 kts | 221° |
| 2026-05-05 22:06 | 18.14369 | -14.88705 | 38953 ft | 392 kts | 221° |
| 2026-05-05 22:07 | 18.09933 | -14.92068 | 38958 ft | 393 kts | 221° |
| 2026-05-05 22:07 | 18.05498 | -14.95430 | 38970 ft | 394 kts | 221° |
| 2026-05-05 22:08 | 18.01074 | -14.98782 | 38976 ft | 395 kts | 221° |
| 2026-05-05 22:08 | 17.96625 | -15.02150 | 38978 ft | 396 kts | 222° |
| 2026-05-05 22:09 | 17.92161 | -15.05528 | 38979 ft | 397 kts | 222° |
| 2026-05-05 22:09 | 17.87707 | -15.08894 | 38979 ft | 397 kts | 222° |
| 2026-05-05 22:10 | 17.83227 | -15.12280 | 38979 ft | 398 kts | 222° |
| 2026-05-05 22:10 | 17.78757 | -15.15663 | 38979 ft | 399 kts | 223° |
| 2026-05-05 22:11 | 17.74256 | -15.19065 | 38979 ft | 399 kts | 222° |
| 2026-05-05 22:11 | 17.69786 | -15.22440 | 38979 ft | 399 kts | 222° |
| 2026-05-05 22:12 | 17.65282 | -15.25839 | 38979 ft | 399 kts | 222° |
| 2026-05-05 22:12 | 17.60797 | -15.29227 | 38979 ft | 399 kts | 223° |
| 2026-05-05 22:13 | 17.56319 | -15.32610 | 38979 ft | 399 kts | 223° |
| 2026-05-05 22:13 | 17.51848 | -15.35984 | 38979 ft | 399 kts | 223° |
| 2026-05-05 22:14 | 17.47342 | -15.39381 | 38979 ft | 399 kts | 223° |
| 2026-05-05 22:14 | 17.42850 | -15.42767 | 38979 ft | 399 kts | 222° |
| 2026-05-05 22:15 | 17.38383 | -15.46130 | 38979 ft | 399 kts | 222° |
| 2026-05-05 22:15 | 17.33893 | -15.49509 | 38979 ft | 399 kts | 222° |
| 2026-05-05 22:16 | 17.29415 | -15.52876 | 38979 ft | 399 kts | 222° |
| 2026-05-05 22:16 | 17.24901 | -15.56268 | 38979 ft | 399 kts | 222° |
| 2026-05-05 22:17 | 17.20428 | -15.59628 | 38979 ft | 399 kts | 222° |
| 2026-05-05 22:17 | 17.15925 | -15.63007 | 38979 ft | 399 kts | 222° |
| 2026-05-05 22:18 | 17.11431 | -15.66377 | 38981 ft | 399 kts | 222° |
| 2026-05-05 22:18 | 17.06951 | -15.69743 | 38978 ft | 401 kts | 222° |
| 2026-05-05 22:19 | 17.02399 | -15.73160 | 38978 ft | 404 kts | 221° |
| 2026-05-05 22:19 | 16.97822 | -15.76590 | 38978 ft | 408 kts | 221° |
| 2026-05-05 22:20 | 16.93234 | -15.80024 | 38979 ft | 410 kts | 221° |
| 2026-05-05 22:20 | 16.88611 | -15.83478 | 38980 ft | 411 kts | 221° |
| 2026-05-05 22:21 | 16.83971 | -15.86946 | 38979 ft | 411 kts | 221° |
| 2026-05-05 22:21 | 16.79349 | -15.90398 | 38979 ft | 411 kts | 221° |
| 2026-05-05 22:22 | 16.74715 | -15.93857 | 38979 ft | 411 kts | 221° |
| 2026-05-05 22:22 | 16.70076 | -15.97319 | 38979 ft | 411 kts | 221° |
| 2026-05-05 22:23 | 16.65431 | -16.00783 | 38979 ft | 411 kts | 221° |
| 2026-05-05 22:23 | 16.60793 | -16.04239 | 38979 ft | 411 kts | 221° |
| 2026-05-05 22:24 | 16.56040 | -16.07581 | 38980 ft | 415 kts | 217° |
| 2026-05-05 22:24 | 16.51096 | -16.10591 | 38964 ft | 416 kts | 216° |
| 2026-05-05 22:24 | 16.48585 | -16.12111 | 38615 ft | 418 kts | 216° |
| 2026-05-05 22:25 | 16.46087 | -16.13628 | 38052 ft | 419 kts | 216° |
| 2026-05-05 22:25 | 16.43587 | -16.15149 | 37292 ft | 421 kts | 216° |
| 2026-05-05 22:25 | 16.41051 | -16.16696 | 36480 ft | 423 kts | 216° |
| 2026-05-05 22:25 | 16.38538 | -16.18229 | 35707 ft | 424 kts | 216° |
| 2026-05-05 22:26 | 16.35993 | -16.19782 | 34919 ft | 425 kts | 216° |
| 2026-05-05 22:26 | 16.33464 | -16.21326 | 34092 ft | 427 kts | 216° |
| 2026-05-05 22:26 | 16.30926 | -16.22876 | 33235 ft | 429 kts | 216° |
| 2026-05-05 22:26 | 16.28340 | -16.24460 | 32339 ft | 431 kts | 215° |
| 2026-05-05 22:27 | 16.25783 | -16.26022 | 31725 ft | 426 kts | 215° |
| 2026-05-05 22:27 | 16.23277 | -16.27548 | 31286 ft | 418 kts | 214° |
| 2026-05-05 22:27 | 16.20782 | -16.29067 | 30856 ft | 411 kts | 214° |
| 2026-05-05 22:27 | 16.18358 | -16.30543 | 30439 ft | 404 kts | 214° |
| 2026-05-05 22:28 | 16.15950 | -16.32010 | 30025 ft | 397 kts | 214° |
| 2026-05-05 22:28 | 16.13592 | -16.33447 | 29618 ft | 391 kts | 214° |
| 2026-05-05 22:28 | 16.11278 | -16.34857 | 29211 ft | 385 kts | 214° |
| 2026-05-05 22:28 | 16.08975 | -16.36260 | 28771 ft | 381 kts | 213° |
| 2026-05-05 22:29 | 16.06715 | -16.37638 | 28320 ft | 377 kts | 213° |
| 2026-05-05 22:29 | 16.04487 | -16.38995 | 27860 ft | 373 kts | 213° |
| 2026-05-05 22:29 | 16.02256 | -16.40354 | 27391 ft | 370 kts | 213° |
| 2026-05-05 22:29 | 16.00056 | -16.41694 | 26920 ft | 367 kts | 213° |
| 2026-05-05 22:30 | 15.97882 | -16.43017 | 26448 ft | 365 kts | 212° |
| 2026-05-05 22:30 | 15.95695 | -16.44348 | 25966 ft | 362 kts | 212° |
| 2026-05-05 22:30 | 15.93533 | -16.45663 | 25482 ft | 360 kts | 212° |
| 2026-05-05 22:30 | 15.91385 | -16.46969 | 24996 ft | 358 kts | 212° |
| 2026-05-05 22:31 | 15.89271 | -16.48254 | 24513 ft | 356 kts | 211° |
| 2026-05-05 22:31 | 15.87122 | -16.49560 | 24014 ft | 355 kts | 211° |
| 2026-05-05 22:31 | 15.85013 | -16.50841 | 23518 ft | 354 kts | 211° |
| 2026-05-05 22:31 | 15.82910 | -16.52118 | 23020 ft | 353 kts | 211° |
| 2026-05-05 22:32 | 15.80784 | -16.53409 | 22511 ft | 352 kts | 211° |
| 2026-05-05 22:32 | 15.78690 | -16.54679 | 22007 ft | 351 kts | 210° |
| 2026-05-05 22:32 | 15.76598 | -16.55949 | 21497 ft | 350 kts | 210° |
| 2026-05-05 22:32 | 15.74511 | -16.57215 | 20988 ft | 349 kts | 210° |
| 2026-05-05 22:33 | 15.72426 | -16.58479 | 20474 ft | 349 kts | 210° |
| 2026-05-05 22:33 | 15.70340 | -16.59744 | 19959 ft | 348 kts | 210° |
| 2026-05-05 22:33 | 15.68256 | -16.61007 | 19441 ft | 347 kts | 210° |
| 2026-05-05 22:33 | 15.66184 | -16.62262 | 18926 ft | 346 kts | 209° |
| 2026-05-05 22:34 | 15.64120 | -16.63513 | 18412 ft | 345 kts | 209° |
| 2026-05-05 22:34 | 15.62057 | -16.64763 | 17899 ft | 343 kts | 209° |
| 2026-05-05 22:34 | 15.60019 | -16.65996 | 17393 ft | 342 kts | 209° |
| 2026-05-05 22:34 | 15.57967 | -16.67239 | 16884 ft | 341 kts | 208° |
| 2026-05-05 22:35 | 15.55946 | -16.68462 | 16382 ft | 340 kts | 208° |
| 2026-05-05 22:35 | 15.53913 | -16.69692 | 15879 ft | 339 kts | 208° |
| 2026-05-05 22:35 | 15.51891 | -16.70916 | 15381 ft | 337 kts | 208° |
| 2026-05-05 22:35 | 15.49863 | -16.72142 | 14882 ft | 336 kts | 208° |
| 2026-05-05 22:36 | 15.47854 | -16.73357 | 14394 ft | 334 kts | 208° |
| 2026-05-05 22:36 | 15.45864 | -16.74560 | 13915 ft | 333 kts | 208° |
| 2026-05-05 22:36 | 15.43892 | -16.75752 | 13442 ft | 331 kts | 208° |
| 2026-05-05 22:36 | 15.41904 | -16.76954 | 12964 ft | 329 kts | 208° |
| 2026-05-05 22:37 | 15.39947 | -16.78136 | 12499 ft | 328 kts | 208° |
| 2026-05-05 22:37 | 15.37970 | -16.79330 | 12036 ft | 326 kts | 208° |
| 2026-05-05 22:37 | 15.36047 | -16.80491 | 11595 ft | 324 kts | 208° |
| 2026-05-05 22:37 | 15.34103 | -16.81664 | 11172 ft | 321 kts | 209° |
| 2026-05-05 22:38 | 15.32179 | -16.82824 | 10759 ft | 318 kts | 209° |
| 2026-05-05 22:38 | 15.30306 | -16.83954 | 10390 ft | 313 kts | 209° |
| 2026-05-05 22:38 | 15.28456 | -16.85071 | 10198 ft | 301 kts | 209° |
| 2026-05-05 22:38 | 15.26678 | -16.86146 | 10104 ft | 287 kts | 209° |
| 2026-05-05 22:39 | 15.25001 | -16.87158 | 10012 ft | 274 kts | 210° |
| 2026-05-05 22:39 | 15.23382 | -16.88135 | 9679 ft | 272 kts | 210° |
| 2026-05-05 22:39 | 15.21747 | -16.89121 | 9324 ft | 271 kts | 210° |
| 2026-05-05 22:39 | 15.20140 | -16.90089 | 8989 ft | 268 kts | 210° |
| 2026-05-05 22:40 | 15.18541 | -16.91054 | 8661 ft | 266 kts | 210° |
| 2026-05-05 22:40 | 15.16948 | -16.92013 | 8340 ft | 264 kts | 210° |
| 2026-05-05 22:40 | 15.15374 | -16.92962 | 8024 ft | 262 kts | 210° |
| 2026-05-05 22:40 | 15.13799 | -16.93912 | 7707 ft | 260 kts | 211° |
| 2026-05-05 22:41 | 15.12250 | -16.94845 | 7396 ft | 258 kts | 211° |
| 2026-05-05 22:41 | 15.10725 | -16.95764 | 7092 ft | 256 kts | 211° |
| 2026-05-05 22:41 | 15.09182 | -16.96693 | 6784 ft | 254 kts | 211° |
| 2026-05-05 22:41 | 15.07676 | -16.97600 | 6484 ft | 252 kts | 211° |
| 2026-05-05 22:42 | 15.05666 | -16.98811 | 6084 ft | 251 kts | 211° |
| 2026-05-05 22:42 | 15.04656 | -16.99419 | 5883 ft | 250 kts | 211° |
| 2026-05-05 22:42 | 15.03162 | -17.00318 | 5586 ft | 249 kts | 211° |
| 2026-05-05 22:42 | 15.01673 | -17.01215 | 5292 ft | 247 kts | 211° |
| 2026-05-05 22:43 | 15.00190 | -17.02108 | 5001 ft | 246 kts | 211° |
| 2026-05-05 22:43 | 14.98731 | -17.02986 | 4714 ft | 245 kts | 211° |
| 2026-05-05 22:43 | 14.97265 | -17.03867 | 4427 ft | 244 kts | 211° |
| 2026-05-05 22:43 | 14.95802 | -17.04747 | 4141 ft | 243 kts | 211° |
| 2026-05-05 22:44 | 14.94340 | -17.05626 | 3857 ft | 242 kts | 211° |
| 2026-05-05 22:44 | 14.92911 | -17.06485 | 3718 ft | 233 kts | 211° |
| 2026-05-05 22:44 | 14.91517 | -17.07221 | 3670 ft | 220 kts | 200° |
| 2026-05-05 22:44 | 14.90024 | -17.07509 | 3620 ft | 220 kts | 185° |
| 2026-05-05 22:45 | 14.88466 | -17.07529 | 3561 ft | 229 kts | 179° |
| 2026-05-05 22:45 | 14.86858 | -17.07492 | 3458 ft | 232 kts | 179° |
| 2026-05-05 22:45 | 14.85268 | -17.07451 | 3306 ft | 225 kts | 179° |
| 2026-05-05 22:45 | 14.83741 | -17.07423 | 3156 ft | 217 kts | 179° |
| 2026-05-05 22:46 | 14.82225 | -17.07402 | 2944 ft | 217 kts | 180° |
| 2026-05-05 22:46 | 14.80734 | -17.07385 | 2662 ft | 216 kts | 180° |
| 2026-05-05 22:46 | 14.79257 | -17.07369 | 2458 ft | 206 kts | 180° |
| 2026-05-05 22:46 | 14.77878 | -17.07355 | 2143 ft | 194 kts | 181° |
| 2026-05-05 22:47 | 14.76562 | -17.07344 | 1864 ft | 184 kts | 180° |
| 2026-05-05 22:47 | 14.75342 | -17.07331 | 1641 ft | 168 kts | 181° |
| 2026-05-05 22:47 | 14.74222 | -17.07308 | 1362 ft | 154 kts | 181° |
| 2026-05-05 22:47 | 14.73200 | -17.07297 | 1179 ft | 144 kts | 182° |
| 2026-05-05 22:48 | 14.72195 | -17.07299 | 988 ft | 143 kts | 182° |
| 2026-05-05 22:48 | 14.71206 | -17.07297 | 814 ft | 142 kts | 183° |
| 2026-05-05 22:48 | 14.70211 | -17.07288 | 653 ft | 142 kts | 182° |
| 2026-05-05 22:48 | 14.69230 | -17.07290 | 460 ft | 141 kts | 184° |
| 2026-05-05 22:49 | 14.68257 | -17.07289 | 310 ft | 138 kts | 182° |
| 2026-05-05 22:49 | 14.67390 | -17.07280 | 299 ft | 110 kts | 186° |
| 2026-05-05 22:49 | 14.66751 | -17.07284 | 299 ft | 75 kts | 182° |
| 2026-05-05 22:49 | 14.66500 | -17.07219 | 299 ft | 25 kts | 158° |
| 2026-05-05 22:50 | 14.66344 | -17.07156 | 299 ft | 23 kts | 148° |
| 2026-05-05 22:50 | 14.66197 | -17.07086 | 299 ft | 22 kts | 168° |
| 2026-05-05 22:50 | 14.66044 | -17.07079 | 299 ft | 21 kts | 181° |
| 2026-05-05 22:50 | 14.65895 | -17.07083 | 299 ft | 21 kts | 181° |
| 2026-05-05 22:51 | 14.65749 | -17.07083 | 299 ft | 20 kts | 181° |
| 2026-05-05 22:51 | 14.65701 | -17.07046 | 299 ft | 10 kts | 43° |
| 2026-05-05 22:51 | 14.65714 | -17.06971 | 299 ft | 11 kts | 88° |
| 2026-05-05 22:51 | 14.65715 | -17.06890 | 299 ft | 8 kts | 88° |
| 2026-05-05 22:52 | 14.65716 | -17.06886 | 299 ft | 0 kts | 88° |